createdAt,value
2018-05-06T00:01:47.521Z,101893.48
2018-05-06T00:07:06.682Z,101896.05
2018-05-06T00:09:38.480Z,101891.73
2018-05-06T00:12:12.088Z,101891.52
2018-05-06T00:14:46.425Z,101890.73
2018-05-06T00:17:17.768Z,101881.43
2018-05-06T00:19:48.972Z,101879.10
2018-05-06T00:22:19.456Z,101881.65
2018-05-06T00:25:00.918Z,101871.73
2018-05-06T00:27:34.945Z,101880.20
2018-05-06T00:30:15.122Z,101881.58
2018-05-06T00:32:45.891Z,101879.27
2018-05-06T00:35:16.991Z,101878.89
2018-05-06T00:37:47.830Z,101875.80
2018-05-06T00:40:21.287Z,101871.30
2018-05-06T00:42:53.162Z,101866.38
2018-05-06T00:45:24.499Z,101871.36
2018-05-06T00:47:55.568Z,101870.22
2018-05-06T00:50:26.102Z,101868.52
2018-05-06T00:52:57.840Z,101868.38
2018-05-06T00:55:28.061Z,101867.84
2018-05-06T00:57:58.736Z,101871.64
2018-05-06T01:00:29.386Z,101872.14
2018-05-06T01:03:00.410Z,101866.14
2018-05-06T01:05:31.137Z,101870.17
2018-05-06T01:08:02.597Z,101865.37
2018-05-06T01:13:11.913Z,101857.73
2018-05-06T01:15:42.395Z,101865.73
2018-05-06T01:18:13.575Z,101868.87
2018-05-06T01:20:43.827Z,101872.58
2018-05-06T01:23:15.233Z,101874.70
2018-05-06T01:25:47.082Z,101879.14
2018-05-06T01:28:17.813Z,101881.25
2018-05-06T01:30:48.862Z,101883.73
2018-05-06T01:33:19.388Z,101883.63
2018-05-06T01:35:49.972Z,101882.95
2018-05-06T01:38:20.576Z,101883.72
2018-05-06T01:40:54.827Z,101880.72
2018-05-06T01:43:25.231Z,101887.02
2018-05-06T01:45:56.058Z,101883.05
2018-05-06T01:48:26.236Z,101876.77
2018-05-06T01:50:56.664Z,101873.52
2018-05-06T01:53:27.765Z,101873.09
2018-05-06T01:55:58.856Z,101873.47
2018-05-06T01:58:29.513Z,101875.02
2018-05-06T02:01:00.547Z,101874.75
2018-05-06T02:03:31.382Z,101887.69
2018-05-06T02:06:02.119Z,101887.77
2018-05-06T02:08:32.767Z,101879.77
2018-05-06T02:11:03.152Z,101885.66
2018-05-06T02:13:33.715Z,101886.94
2018-05-06T02:16:04.741Z,101892.64
2018-05-06T02:18:35.203Z,101883.73
2018-05-06T02:21:06.862Z,101886.78
2018-05-06T02:23:37.954Z,101878.49
2018-05-06T02:26:08.925Z,101879.12
2018-05-06T02:28:39.269Z,101876.19
2018-05-06T02:31:09.789Z,101874.18
2018-05-06T02:33:40.191Z,101876.11
2018-05-06T02:36:10.575Z,101872.08
2018-05-06T02:38:41.044Z,101878.02
2018-05-06T02:41:12.087Z,101875.95
2018-05-06T02:43:42.685Z,101873.56
2018-05-06T02:46:13.281Z,101861.41
2018-05-06T02:48:44.341Z,101871.92
2018-05-06T02:51:14.929Z,101873.33
2018-05-06T02:53:45.563Z,101862.95
2018-05-06T02:56:16.439Z,101867.11
2018-05-06T02:58:46.649Z,101867.47
2018-05-06T03:01:17.192Z,101872.97
2018-05-06T03:03:48.534Z,101860.09
2018-05-06T03:06:18.943Z,101866.32
2018-05-06T03:08:50.005Z,101870.34
2018-05-06T03:11:25.174Z,101878.95
2018-05-06T03:13:55.758Z,101871.81
2018-05-06T03:16:37.261Z,101874.98
2018-05-06T03:19:11.153Z,101874.56
2018-05-06T03:21:48.839Z,101877.66
2018-05-06T03:24:20.579Z,101873.50
2018-05-06T03:26:51.124Z,101873.98
2018-05-06T03:29:29.414Z,101878.81
2018-05-06T03:32:00.371Z,101870.89
2018-05-06T03:34:30.683Z,101877.52
2018-05-06T03:37:00.980Z,101869.60
2018-05-06T03:39:31.553Z,101871.30
2018-05-06T03:42:01.646Z,101876.05
2018-05-06T03:44:40.628Z,101869.30
2018-05-06T03:47:14.229Z,101865.30
2018-05-06T03:49:44.512Z,101873.34
2018-05-06T03:52:14.813Z,101871.63
2018-05-06T03:54:46.488Z,101879.79
2018-05-06T03:59:30.471Z,101875.48
2018-05-06T04:02:01.386Z,101880.78
2018-05-06T04:04:32.256Z,101879.89
2018-05-06T04:07:02.672Z,101882.28
2018-05-06T04:09:33.273Z,101878.27
2018-05-06T04:12:04.186Z,101884.02
2018-05-06T04:14:35.051Z,101884.13
2018-05-06T04:17:06.288Z,101885.55
2018-05-06T04:19:37.058Z,101879.93
2018-05-06T04:22:07.787Z,101878.61
2018-05-06T04:24:38.334Z,101879.24
2018-05-06T04:27:09.367Z,101873.86
2018-05-06T04:29:39.763Z,101879.42
2018-05-06T04:32:11.661Z,101880.58
2018-05-06T04:34:42.435Z,101877.73
2018-05-06T04:37:13.223Z,101884.33
2018-05-06T04:39:44.430Z,101887.17
2018-05-06T04:42:14.641Z,101884.63
2018-05-06T04:44:45.084Z,101884.63
2018-05-06T04:47:22.256Z,101885.56
2018-05-06T04:49:52.603Z,101886.57
2018-05-06T04:52:30.680Z,101887.82
2018-05-06T04:55:01.465Z,101898.95
2018-05-06T04:57:32.106Z,101896.88
2018-05-06T05:00:05.213Z,101903.46
2018-05-06T05:02:36.230Z,101898.87
2018-05-06T05:05:06.670Z,101900.56
2018-05-06T05:07:37.464Z,101894.17
2018-05-06T05:10:12.403Z,101900.48
2018-05-06T05:12:43.502Z,101899.61
2018-05-06T05:15:50.560Z,101902.09
2018-05-06T05:18:45.797Z,101902.34
2018-05-06T05:21:17.344Z,101900.55
2018-05-06T05:23:47.893Z,101899.14
2018-05-06T05:26:18.418Z,101900.41
2018-05-06T05:28:48.921Z,101896.45
2018-05-06T05:31:19.718Z,101898.21
2018-05-06T05:33:50.154Z,101900.34
2018-05-06T05:36:20.677Z,101900.18
2018-05-06T05:38:51.525Z,101906.63
2018-05-06T05:41:22.132Z,101900.72
2018-05-06T05:43:53.306Z,101907.37
2018-05-06T05:46:30.124Z,101910.76
2018-05-06T05:49:02.278Z,101916.16
2018-05-06T05:51:35.043Z,101918.35
2018-05-06T05:54:06.101Z,101911.69
2018-05-06T05:56:39.834Z,101915.25
2018-05-06T05:59:11.335Z,101913.70
2018-05-06T06:01:43.432Z,101918.19
2018-05-06T06:04:13.654Z,101913.54
2018-05-06T06:06:43.917Z,101915.95
2018-05-06T06:09:17.170Z,101916.09
2018-05-06T06:11:47.865Z,101922.95
2018-05-06T06:14:19.635Z,101914.33
2018-05-06T06:17:31.226Z,101918.27
2018-05-06T06:20:02.926Z,101918.83
2018-05-06T06:22:34.620Z,101917.75
2018-05-06T06:25:04.919Z,101922.34
2018-05-06T06:27:39.683Z,101920.34
2018-05-06T06:30:13.664Z,101920.86
2018-05-06T06:32:44.942Z,101916.36
2018-05-06T06:35:15.911Z,101920.56
2018-05-06T06:37:46.686Z,101931.83
2018-05-06T06:40:17.410Z,101919.41
2018-05-06T06:42:50.116Z,101920.41
2018-05-06T06:45:21.444Z,101922.82
2018-05-06T06:47:53.485Z,101927.42
2018-05-06T06:50:23.684Z,101935.16
2018-05-06T06:52:54.426Z,101932.00
2018-05-06T06:55:24.791Z,101934.45
2018-05-06T06:57:58.702Z,101932.94
2018-05-06T07:00:31.215Z,101937.11
2018-05-06T07:03:04.581Z,101945.30
2018-05-06T07:05:36.298Z,101939.48
2018-05-06T07:08:06.831Z,101945.69
2018-05-06T07:10:37.503Z,101939.56
2018-05-06T07:13:08.735Z,101936.00
2018-05-06T07:15:39.721Z,101946.23
2018-05-06T07:18:19.183Z,101942.14
2018-05-06T07:20:50.368Z,101940.84
2018-05-06T07:23:20.920Z,101938.46
2018-05-06T07:25:51.260Z,101953.71
2018-05-06T07:28:21.793Z,101945.15
2018-05-06T07:30:53.081Z,101945.30
2018-05-06T07:33:23.298Z,101946.01
2018-05-06T07:35:53.688Z,101936.59
2018-05-06T07:38:24.317Z,101939.52
2018-05-06T07:40:55.462Z,101943.17
2018-05-06T07:43:25.888Z,101927.27
2018-05-06T07:45:57.946Z,101938.37
2018-05-06T07:48:28.317Z,101938.95
2018-05-06T07:51:00.615Z,101940.02
2018-05-06T07:53:32.046Z,101939.28
2018-05-06T07:56:02.730Z,101934.64
2018-05-06T07:58:33.861Z,101939.68
2018-05-06T08:01:04.396Z,101942.92
2018-05-06T08:03:34.813Z,101936.09
2018-05-06T08:06:08.512Z,101940.73
2018-05-06T08:08:49.997Z,101941.58
2018-05-06T08:14:12.393Z,101946.52
2018-05-06T08:16:45.222Z,101945.15
2018-05-06T08:19:15.649Z,101953.85
2018-05-06T08:21:46.307Z,101942.98
2018-05-06T08:24:17.217Z,101943.39
2018-05-06T08:26:48.397Z,101937.68
2018-05-06T08:29:19.001Z,101938.70
2018-05-06T08:31:50.501Z,101939.02
2018-05-06T08:34:21.022Z,101920.87
2018-05-06T08:36:52.243Z,101930.72
2018-05-06T08:39:22.725Z,101943.13
2018-05-06T08:41:53.153Z,101936.86
2018-05-06T08:44:28.140Z,101943.75
2018-05-06T08:47:01.686Z,101937.20
2018-05-06T08:49:33.426Z,101946.34
2018-05-06T08:52:05.971Z,101938.33
2018-05-06T08:57:13.969Z,101951.36
2018-05-06T08:59:45.210Z,101957.67
2018-05-06T09:02:15.745Z,101952.44
2018-05-06T09:05:32.395Z,101948.13
2018-05-06T09:08:08.663Z,101957.94
2018-05-06T09:13:38.252Z,101966.95
2018-05-06T09:16:10.234Z,101955.36
2018-05-06T09:18:40.749Z,101937.01
2018-05-06T09:21:12.889Z,101945.35
2018-05-06T09:23:46.286Z,101941.56
2018-05-06T09:26:20.059Z,101938.27
2018-05-06T09:28:57.235Z,101929.08
2018-05-06T09:31:31.568Z,101920.45
2018-05-06T09:34:02.542Z,101917.49
2018-05-06T09:36:34.869Z,101912.98
2018-05-06T09:39:07.870Z,101914.10
2018-05-06T09:41:40.652Z,101915.80
2018-05-06T09:44:12.461Z,101914.77
2018-05-06T09:46:53.188Z,101924.62
2018-05-06T09:49:30.752Z,101919.68
2018-05-06T09:52:09.284Z,101911.85
2018-05-06T09:54:54.847Z,101905.61
2018-05-06T09:57:26.471Z,101904.83
2018-05-06T09:59:57.207Z,101903.65
2018-05-06T10:02:27.598Z,101904.75
2018-05-06T10:04:59.579Z,101879.16
2018-05-06T10:07:30.595Z,101893.12
2018-05-06T10:10:04.190Z,101887.36
2018-05-06T10:12:37.744Z,101883.38
2018-05-06T10:15:09.472Z,101879.47
2018-05-06T10:17:42.905Z,101882.51
2018-05-06T10:20:14.782Z,101882.68
2018-05-06T10:22:45.464Z,101847.44
2018-05-06T10:25:15.718Z,101865.47
2018-05-06T10:30:46.138Z,101865.79
2018-05-06T10:35:56.441Z,101858.97
2018-05-06T10:38:27.556Z,101856.70
2018-05-06T10:40:58.277Z,101851.31
2018-05-06T10:43:31.522Z,101841.37
2018-05-06T10:46:07.781Z,101838.69
2018-05-06T10:48:39.562Z,101833.24
2018-05-06T10:51:12.520Z,101835.69
2018-05-06T10:53:43.930Z,101828.77
2018-05-06T10:56:14.921Z,101822.27
2018-05-06T11:01:23.395Z,101819.38
2018-05-06T11:03:54.622Z,101824.36
2018-05-06T11:06:25.423Z,101819.27
2018-05-06T11:08:56.740Z,101820.66
2018-05-06T11:11:27.032Z,101831.64
2018-05-06T11:13:57.536Z,101814.08
2018-05-06T11:16:28.760Z,101808.12
2018-05-06T11:18:59.741Z,101817.08
2018-05-06T11:21:32.238Z,101814.91
2018-05-06T11:24:04.459Z,101805.28
2018-05-06T11:26:35.184Z,101799.11
2018-05-06T11:29:06.498Z,101803.85
2018-05-06T11:31:37.537Z,101807.44
2018-05-06T11:34:08.431Z,101797.17
2018-05-06T11:36:42.149Z,101805.89
2018-05-06T11:39:12.478Z,101798.91
2018-05-06T11:41:42.960Z,101794.61
2018-05-06T11:44:13.604Z,101791.69
2018-05-06T11:46:45.810Z,101787.45
2018-05-06T11:49:16.586Z,101787.59
2018-05-06T11:51:47.326Z,101791.03
2018-05-06T11:54:17.928Z,101794.11
2018-05-06T11:56:48.432Z,101787.61
2018-05-06T11:59:18.692Z,101789.55
2018-05-06T12:01:49.974Z,101790.23
2018-05-06T12:04:20.601Z,101782.21
2018-05-06T12:06:51.137Z,101774.72
2018-05-06T12:09:21.711Z,101777.91
2018-05-06T12:12:06.552Z,101778.21
2018-05-06T12:14:37.103Z,101776.84
2018-05-06T12:17:13.615Z,101771.33
2018-05-06T12:19:44.573Z,101762.53
2018-05-06T12:22:18.699Z,101760.80
2018-05-06T12:24:49.532Z,101747.08
2018-05-06T12:27:19.795Z,101745.61
2018-05-06T12:29:50.388Z,101746.20
2018-05-06T12:32:21.161Z,101744.09
2018-05-06T12:34:52.304Z,101726.05
2018-05-06T12:37:23.907Z,101735.58
2018-05-06T12:39:56.326Z,101733.16
2018-05-06T12:42:32.000Z,101728.29
2018-05-06T12:45:06.510Z,101721.23
2018-05-06T12:47:38.155Z,101724.48
2018-05-06T12:50:10.239Z,101717.38
2018-05-06T12:52:44.734Z,101725.56
2018-05-06T12:55:15.264Z,101717.99
2018-05-06T12:57:45.703Z,101708.78
2018-05-06T13:00:23.243Z,101704.64
2018-05-06T13:02:55.502Z,101705.01
2018-05-06T13:05:25.825Z,101699.23
2018-05-06T13:07:56.477Z,101678.66
2018-05-06T13:10:46.862Z,101695.95
2018-05-06T13:13:21.236Z,101699.70
2018-05-06T13:15:52.845Z,101688.92
2018-05-06T13:18:23.433Z,101686.92
2018-05-06T13:20:54.045Z,101683.91
2018-05-06T13:23:25.606Z,101692.22
2018-05-06T13:26:13.685Z,101686.44
2018-05-06T13:28:45.451Z,101681.71
2018-05-06T13:31:23.854Z,101677.25
2018-05-06T13:33:55.532Z,101664.25
2018-05-06T13:36:27.175Z,101668.22
2018-05-06T13:38:57.728Z,101673.54
2018-05-06T13:41:28.612Z,101668.91
2018-05-06T13:43:59.657Z,101668.58
2018-05-06T13:49:37.867Z,101664.02
2018-05-06T13:52:18.477Z,101664.08
2018-05-06T13:54:49.680Z,101648.89
2018-05-06T13:57:20.967Z,101650.29
2018-05-06T13:59:51.658Z,101648.42
2018-05-06T14:02:22.809Z,101652.88
2018-05-06T14:04:54.314Z,101647.28
2018-05-06T14:07:26.045Z,101649.16
2018-05-06T14:09:59.824Z,101632.75
2018-05-06T14:12:30.112Z,101630.55
2018-05-06T14:15:04.130Z,101635.15
2018-05-06T14:17:34.701Z,101632.01
2018-05-06T14:20:06.873Z,101622.23
2018-05-06T14:22:45.811Z,101622.86
2018-05-06T14:25:33.518Z,101617.84
2018-05-06T14:30:49.672Z,101616.27
2018-05-06T14:33:20.892Z,101622.95
2018-05-06T14:35:51.601Z,101615.89
2018-05-06T14:38:22.133Z,101617.26
2018-05-06T14:40:53.079Z,101619.34
2018-05-06T14:43:23.357Z,101620.05
2018-05-06T14:45:53.968Z,101603.82
2018-05-06T14:48:26.796Z,101611.48
2018-05-06T14:50:58.651Z,101617.35
2018-05-06T14:53:34.037Z,101607.88
2018-05-06T14:56:05.215Z,101593.90
2018-05-06T14:58:37.641Z,101590.69
2018-05-06T15:01:10.097Z,101592.55
2018-05-06T15:03:40.762Z,101603.16
2018-05-06T15:06:25.159Z,101588.41
2018-05-06T15:11:51.085Z,101584.89
2018-05-06T15:14:31.807Z,101582.66
2018-05-06T15:17:10.232Z,101585.53
2018-05-06T15:19:41.974Z,101579.86
2018-05-06T15:22:25.137Z,101582.20
2018-05-06T15:24:56.159Z,101575.55
2018-05-06T15:27:26.768Z,101571.90
2018-05-06T15:29:57.215Z,101575.65
2018-05-06T15:32:27.856Z,101572.03
2018-05-06T15:34:59.895Z,101568.34
2018-05-06T15:37:30.348Z,101568.35
2018-05-06T15:40:02.684Z,101568.55
2018-05-06T15:42:36.406Z,101560.81
2018-05-06T15:45:08.096Z,101556.59
2018-05-06T15:47:39.172Z,101562.37
2018-05-06T15:50:09.977Z,101561.86
2018-05-06T15:52:41.070Z,101557.93
2018-05-06T15:55:21.102Z,101555.69
2018-05-06T15:58:03.719Z,101562.04
2018-05-06T16:00:41.221Z,101557.06
2018-05-06T16:04:16.378Z,101554.97
2018-05-06T16:06:48.131Z,101547.09
2018-05-06T16:09:18.776Z,101540.68
2018-05-06T16:11:50.574Z,101547.98
2018-05-06T16:14:26.239Z,101549.79
2018-05-06T16:16:58.693Z,101550.52
2018-05-06T16:22:09.502Z,101527.50
2018-05-06T16:24:39.870Z,101536.39
2018-05-06T16:27:11.166Z,101531.19
2018-05-06T16:29:42.806Z,101531.57
2018-05-06T16:32:13.167Z,101526.90
2018-05-06T16:34:48.316Z,101519.39
2018-05-06T16:37:18.693Z,101527.95
2018-05-06T16:39:52.198Z,101537.48
2018-05-06T16:42:25.194Z,101537.84
2018-05-06T16:44:59.074Z,101531.95
2018-05-06T16:47:34.155Z,101524.39
2018-05-06T16:50:06.237Z,101526.09
2018-05-06T16:52:37.253Z,101523.55
2018-05-06T16:58:12.307Z,101521.48
2018-05-06T17:00:43.447Z,101523.16
2018-05-06T17:03:16.191Z,101520.66
2018-05-06T17:05:49.392Z,101521.78
2018-05-06T17:08:25.341Z,101517.42
2018-05-06T17:11:04.008Z,101512.70
2018-05-06T17:13:35.488Z,101518.37
2018-05-06T17:16:06.433Z,101518.22
2018-05-06T17:18:37.473Z,101508.28
2018-05-06T17:21:09.574Z,101506.19
2018-05-06T17:23:40.815Z,101505.29
2018-05-06T17:26:12.690Z,101501.75
2018-05-06T17:28:44.820Z,101505.22
2018-05-06T17:31:16.442Z,101506.20
2018-05-06T17:33:47.853Z,101503.01
2018-05-06T17:36:23.522Z,101505.27
2018-05-06T17:39:00.100Z,101507.05
2018-05-06T17:41:32.938Z,101488.55
2018-05-06T17:44:10.833Z,101507.09
2018-05-06T17:46:42.746Z,101504.87
2018-05-06T17:49:19.332Z,101454.69
2018-05-06T17:51:52.433Z,101506.72
2018-05-06T17:54:35.031Z,101512.50
2018-05-06T17:57:11.182Z,101507.14
2018-05-06T17:59:42.457Z,101506.45
2018-05-06T18:02:14.739Z,101505.83
2018-05-06T18:04:45.378Z,101503.55
2018-05-06T18:07:16.888Z,101503.98
2018-05-06T18:09:50.513Z,101518.53
2018-05-06T18:12:27.130Z,101511.14
2018-05-06T18:14:57.674Z,101502.59
2018-05-06T18:17:29.312Z,101518.88
2018-05-06T18:20:02.929Z,101515.14
2018-05-06T18:22:34.531Z,101513.11
2018-05-06T18:25:05.606Z,101514.05
2018-05-06T18:27:40.145Z,101517.55
2018-05-06T18:30:12.890Z,101523.39
2018-05-06T18:32:45.946Z,101526.75
2018-05-06T18:35:17.191Z,101527.75
2018-05-06T18:37:53.485Z,101524.52
2018-05-06T18:40:25.785Z,101531.91
2018-05-06T18:42:57.568Z,101528.23
2018-05-06T18:45:30.540Z,101524.80
2018-05-06T18:48:03.011Z,101529.14
2018-05-06T18:50:34.379Z,101530.27
2018-05-06T18:53:10.025Z,101524.64
2018-05-06T18:55:43.169Z,101527.16
2018-05-06T18:58:19.927Z,101524.89
2018-05-06T19:00:55.637Z,101525.03
2018-05-06T19:03:28.616Z,101531.19
2018-05-06T19:06:08.444Z,101527.98
2018-05-06T19:08:44.918Z,101533.94
2018-05-06T19:11:16.244Z,101537.83
2018-05-06T19:13:48.801Z,101536.70
2018-05-06T19:16:20.542Z,101538.58
2018-05-06T19:18:55.317Z,101538.22
2018-05-06T19:21:27.337Z,101540.98
2018-05-06T19:23:59.384Z,101544.84
2018-05-06T19:26:30.008Z,101548.94
2018-05-06T19:29:00.939Z,101551.13
2018-05-06T19:31:31.947Z,101550.80
2018-05-06T19:34:40.975Z,101560.64
2018-05-06T19:37:13.015Z,101557.16
2018-05-06T19:39:43.958Z,101564.38
2018-05-06T19:42:14.545Z,101557.41
2018-05-06T19:44:44.982Z,101560.55
2018-05-06T19:47:16.707Z,101558.67
2018-05-06T19:49:47.260Z,101558.34
2018-05-06T19:52:17.998Z,101565.15
2018-05-06T19:54:48.366Z,101563.27
2018-05-06T19:57:19.019Z,101532.92
2018-05-06T19:59:50.613Z,101564.80
2018-05-06T20:02:23.473Z,101568.23
2018-05-06T20:04:54.878Z,101566.64
2018-05-06T20:07:26.902Z,101569.69
2018-05-06T20:10:03.019Z,101569.50
2018-05-06T20:12:38.006Z,101571.05
2018-05-06T20:15:14.224Z,101578.23
2018-05-06T20:17:44.880Z,101578.33
2018-05-06T20:20:17.362Z,101583.97
2018-05-06T20:22:50.472Z,101579.28
2018-05-06T20:25:21.685Z,101589.51
2018-05-06T20:27:53.034Z,101591.80
2018-05-06T20:30:27.380Z,101591.14
2018-05-06T20:33:01.413Z,101587.01
2018-05-06T20:35:33.524Z,101589.66
2018-05-06T20:38:08.594Z,101591.70
2018-05-06T20:40:41.485Z,101596.16
2018-05-06T20:43:12.740Z,101600.98
2018-05-06T20:45:44.742Z,101601.08
2018-05-06T20:48:17.698Z,101602.73
2018-05-06T20:50:52.295Z,101599.64
2018-05-06T20:53:24.433Z,101602.74
2018-05-06T20:55:56.319Z,101600.22
2018-05-06T20:58:28.929Z,101610.22
2018-05-06T21:01:03.225Z,101612.86
2018-05-06T21:03:34.355Z,101611.77
2018-05-06T21:06:05.169Z,101613.36
2018-05-06T21:08:37.047Z,101613.83
2018-05-06T21:11:08.174Z,101620.47
2018-05-06T21:13:40.778Z,101606.64
2018-05-06T21:16:12.508Z,101609.95
2018-05-06T21:18:48.405Z,101616.46
2018-05-06T21:21:20.222Z,101618.19
2018-05-06T21:23:50.920Z,101618.45
2018-05-06T21:26:21.514Z,101625.17
2018-05-06T21:28:54.404Z,101626.25
2018-05-06T21:31:25.844Z,101622.51
2018-05-06T21:33:56.449Z,101625.03
2018-05-06T21:36:29.997Z,101625.55
2018-05-06T21:39:01.408Z,101627.39
2018-05-06T21:41:32.537Z,101627.39
2018-05-06T21:44:03.128Z,101629.84
2018-05-06T21:46:35.700Z,101635.94
2018-05-06T21:49:10.643Z,101639.92
2018-05-06T21:51:42.474Z,101632.78
2018-05-06T21:54:13.888Z,101635.34
2018-05-06T21:56:44.128Z,101634.66
2018-05-06T21:59:15.692Z,101637.11
2018-05-06T22:01:46.287Z,101639.28
2018-05-06T22:04:16.652Z,101640.21
2018-05-06T22:06:47.531Z,101639.58
2018-05-06T22:09:17.918Z,101635.98
2018-05-06T22:11:48.199Z,101632.58
2018-05-06T22:14:18.355Z,101640.05
2018-05-06T22:16:48.856Z,101631.49
2018-05-06T22:19:19.637Z,101631.88
2018-05-06T22:21:50.096Z,101632.23
2018-05-06T22:24:20.368Z,101635.89
2018-05-06T22:26:51.114Z,101637.76
2018-05-06T22:29:29.881Z,101629.22
2018-05-06T22:32:02.176Z,101636.36
2018-05-06T22:34:33.063Z,101637.96
2018-05-06T22:37:04.637Z,101632.48
2018-05-06T22:39:40.081Z,101626.65
2018-05-06T22:42:10.596Z,101624.98
2018-05-06T22:44:41.100Z,101625.19
2018-05-06T22:47:13.345Z,101634.14
2018-05-06T22:49:46.041Z,101632.59
2018-05-06T22:52:19.457Z,101638.64
2018-05-06T22:54:50.836Z,101641.22
2018-05-06T22:57:21.289Z,101636.56
2018-05-06T22:59:53.017Z,101632.91
2018-05-06T23:02:23.767Z,101636.00
2018-05-06T23:04:54.253Z,101626.78
2018-05-06T23:07:24.766Z,101625.51
2018-05-06T23:09:57.283Z,101624.92
2018-05-06T23:12:27.732Z,101629.45
2018-05-06T23:14:58.632Z,101636.23
2018-05-06T23:17:29.442Z,101632.42
2018-05-06T23:19:59.717Z,101627.52
2018-05-06T23:22:30.059Z,101635.05
2018-05-06T23:25:00.439Z,101631.48
2018-05-06T23:27:30.841Z,101626.87
2018-05-06T23:30:03.729Z,101626.58
2018-05-06T23:32:34.735Z,101624.55
2018-05-06T23:35:05.348Z,101623.41
2018-05-06T23:37:35.636Z,101622.81
2018-05-06T23:40:06.191Z,101621.00
2018-05-06T23:42:36.363Z,101627.00
2018-05-06T23:45:08.450Z,101628.36
2018-05-06T23:47:39.312Z,101621.97
2018-05-06T23:50:12.194Z,101631.82
2018-05-06T23:52:42.831Z,101625.02
2018-05-06T23:55:14.164Z,101618.37
2018-05-06T23:57:44.894Z,101618.88
